createdAt,value
2022-09-03T00:03:00.797Z,19.50
2022-09-03T00:05:45.858Z,19.40
2022-09-03T00:08:33.523Z,19.30
2022-09-03T00:11:18.756Z,19.30
2022-09-03T00:13:52.143Z,19.20
2022-09-03T00:16:25.845Z,19.20
2022-09-03T00:19:00.695Z,19.20
2022-09-03T00:21:45.589Z,19.30
2022-09-03T00:24:18.102Z,19.20
2022-09-03T00:26:55.082Z,19.10
2022-09-03T00:29:35.641Z,19.10
2022-09-03T00:32:14.104Z,19.00
2022-09-03T00:34:52.642Z,19.10
2022-09-03T00:37:21.536Z,19.10
2022-09-03T00:39:49.861Z,19.10
2022-09-03T00:43:02.112Z,19.20
2022-09-03T00:45:48.399Z,19.20
2022-09-03T00:48:28.738Z,19.30
2022-09-03T00:51:00.968Z,19.30
2022-09-03T00:53:52.159Z,19.30
2022-09-03T00:56:43.763Z,19.30
2022-09-03T00:59:35.819Z,19.30
2022-09-03T01:02:29.173Z,19.30
2022-09-03T01:05:16.642Z,19.30
2022-09-03T01:08:02.030Z,19.30
2022-09-03T01:10:34.565Z,19.20
2022-09-03T01:13:21.961Z,19.10
2022-09-03T01:16:06.617Z,19.10
2022-09-03T01:18:58.619Z,19.10
2022-09-03T01:21:49.945Z,19.10
2022-09-03T01:24:59.343Z,19.10
2022-09-03T01:28:20.567Z,19.10
2022-09-03T01:31:26.874Z,19.10
2022-09-03T01:34:01.515Z,19.10
2022-09-03T01:37:23.162Z,19.10
2022-09-03T01:40:31.414Z,19.10
2022-09-03T01:43:20.317Z,19.10
2022-09-03T01:46:00.810Z,19.00
2022-09-03T01:49:16.575Z,19.00
2022-09-03T01:51:45.337Z,18.90
2022-09-03T01:54:35.116Z,18.90
2022-09-03T01:57:35.582Z,18.90
2022-09-03T02:00:22.755Z,18.90
2022-09-03T02:02:53.058Z,18.90
2022-09-03T02:05:25.802Z,19.00
2022-09-03T02:08:14.127Z,19.00
2022-09-03T02:10:53.467Z,19.00
2022-09-03T02:13:27.398Z,19.00
2022-09-03T02:16:02.387Z,19.00
2022-09-03T02:18:37.284Z,18.90
2022-09-03T02:21:07.180Z,18.80
2022-09-03T02:23:35.775Z,18.90
2022-09-03T02:26:04.136Z,18.90
2022-09-03T02:28:33.176Z,18.90
2022-09-03T02:31:01.233Z,18.80
2022-09-03T02:33:40.782Z,18.80
2022-09-03T02:36:16.837Z,18.80
2022-09-03T02:38:46.282Z,18.80
2022-09-03T02:41:15.441Z,18.70
2022-09-03T02:43:54.044Z,18.70
2022-09-03T02:46:32.995Z,18.70
2022-09-03T02:49:00.872Z,18.60
2022-09-03T02:51:37.359Z,18.50
2022-09-03T02:54:06.407Z,18.50
2022-09-03T02:56:34.796Z,18.50
2022-09-03T02:59:05.044Z,18.50
2022-09-03T03:01:33.176Z,18.60
2022-09-03T03:04:01.188Z,18.70
2022-09-03T03:06:29.059Z,18.70
2022-09-03T03:08:57.239Z,18.80
2022-09-03T03:11:26.391Z,18.80
2022-09-03T03:13:54.302Z,18.80
2022-09-03T03:16:22.283Z,18.80
2022-09-03T03:18:50.901Z,18.90
2022-09-03T03:21:19.544Z,18.90
2022-09-03T03:23:47.394Z,18.80
2022-09-03T03:26:18.725Z,18.80
2022-09-03T03:28:49.063Z,18.80
2022-09-03T03:31:20.784Z,18.80
2022-09-03T03:34:00.560Z,18.90
2022-09-03T03:36:32.368Z,18.80
2022-09-03T03:39:01.369Z,18.80
2022-09-03T03:41:33.584Z,18.80
2022-09-03T03:44:06.161Z,18.90
2022-09-03T03:46:39.803Z,18.80
2022-09-03T03:49:08.924Z,18.80
2022-09-03T03:51:37.319Z,18.70
2022-09-03T03:54:05.854Z,18.60
2022-09-03T03:56:35.522Z,18.50
2022-09-03T03:59:04.833Z,18.60
2022-09-03T04:01:32.890Z,18.60
2022-09-03T04:04:00.750Z,18.60
2022-09-03T04:06:29.559Z,18.60
2022-09-03T04:08:57.492Z,18.60
2022-09-03T04:11:26.467Z,18.60
2022-09-03T04:13:54.753Z,18.60
2022-09-03T04:16:27.593Z,18.60
2022-09-03T04:18:56.972Z,18.70
2022-09-03T04:21:30.736Z,18.60
2022-09-03T04:23:58.893Z,18.60
2022-09-03T04:26:33.155Z,18.60
2022-09-03T04:29:09.979Z,18.60
2022-09-03T04:31:39.047Z,18.60
2022-09-03T04:34:07.978Z,18.60
2022-09-03T04:36:37.473Z,18.60
2022-09-03T04:39:05.250Z,18.60
2022-09-03T04:41:33.066Z,18.60
2022-09-03T04:44:00.916Z,18.70
2022-09-03T04:46:33.659Z,18.70
2022-09-03T04:49:02.513Z,18.70
2022-09-03T04:51:31.577Z,18.70
2022-09-03T04:54:02.187Z,18.60
2022-09-03T04:56:33.494Z,18.60
2022-09-03T04:59:08.343Z,18.60
2022-09-03T05:01:39.331Z,18.60
2022-09-03T05:04:08.733Z,18.60
2022-09-03T05:06:37.404Z,18.60
2022-09-03T05:09:06.375Z,18.60
2022-09-03T05:11:34.201Z,18.60
2022-09-03T05:14:02.324Z,18.60
2022-09-03T05:16:31.048Z,18.70
2022-09-03T05:19:00.898Z,18.70
2022-09-03T05:21:30.069Z,18.60
2022-09-03T05:23:59.935Z,18.60
2022-09-03T05:26:31.977Z,18.50
2022-09-03T05:29:03.022Z,18.40
2022-09-03T05:31:32.174Z,18.40
2022-09-03T05:34:04.216Z,18.40
2022-09-03T05:36:35.755Z,18.40
2022-09-03T05:39:05.865Z,18.50
2022-09-03T05:41:34.378Z,18.50
2022-09-03T05:44:04.058Z,18.60
2022-09-03T05:46:33.784Z,18.60
2022-09-03T05:49:04.988Z,18.60
2022-09-03T05:51:35.672Z,18.70
2022-09-03T05:54:04.012Z,18.70
2022-09-03T05:56:33.561Z,18.80
2022-09-03T05:59:06.862Z,18.80
2022-09-03T06:01:38.081Z,18.90
2022-09-03T06:04:10.620Z,18.90
2022-09-03T06:06:43.538Z,18.90
2022-09-03T06:09:15.955Z,18.90
2022-09-03T06:11:45.461Z,18.90
2022-09-03T06:14:15.326Z,19.00
2022-09-03T06:16:46.485Z,19.00
2022-09-03T06:19:14.415Z,19.10
2022-09-03T06:21:44.418Z,19.00
2022-09-03T06:24:18.135Z,19.00
2022-09-03T06:26:46.634Z,19.10
2022-09-03T06:29:15.557Z,19.00
2022-09-03T06:31:43.473Z,19.10
2022-09-03T06:34:12.445Z,19.00
2022-09-03T06:36:43.957Z,19.00
2022-09-03T06:39:11.751Z,19.00
2022-09-03T06:41:40.214Z,19.20
2022-09-03T06:44:11.823Z,19.20
2022-09-03T06:46:44.362Z,19.20
2022-09-03T06:49:13.000Z,19.20
2022-09-03T06:51:41.178Z,19.20
2022-09-03T06:54:11.768Z,19.20
2022-09-03T06:56:42.688Z,19.30
2022-09-03T06:59:14.272Z,19.40
2022-09-03T07:01:45.333Z,19.40
2022-09-03T07:04:20.405Z,19.40
2022-09-03T07:06:48.436Z,19.50
2022-09-03T07:09:18.327Z,19.60
2022-09-03T07:11:48.078Z,19.70
2022-09-03T07:14:21.227Z,19.70
2022-09-03T07:16:50.598Z,19.80
2022-09-03T07:19:18.774Z,19.80
2022-09-03T07:21:50.714Z,19.80
2022-09-03T07:24:22.219Z,19.80
2022-09-03T07:26:50.672Z,19.90
2022-09-03T07:29:21.997Z,19.90
2022-09-03T07:31:51.888Z,19.90
2022-09-03T07:34:25.525Z,19.90
2022-09-03T07:36:54.894Z,19.90
2022-09-03T07:39:22.940Z,19.90
2022-09-03T07:41:50.874Z,19.80
2022-09-03T07:44:20.079Z,19.80
2022-09-03T07:46:50.849Z,19.80
2022-09-03T07:49:22.008Z,19.90
2022-09-03T07:51:52.391Z,19.80
2022-09-03T07:54:21.670Z,19.80
2022-09-03T07:56:49.520Z,19.80
2022-09-03T07:59:17.389Z,19.70
2022-09-03T08:01:45.180Z,19.60
2022-09-03T08:04:13.657Z,19.40
2022-09-03T08:06:42.306Z,19.30
2022-09-03T08:09:13.796Z,19.30
2022-09-03T08:11:47.218Z,19.40
2022-09-03T08:14:19.127Z,19.50
2022-09-03T08:16:48.295Z,19.50
2022-09-03T08:19:18.620Z,19.40
2022-09-03T08:21:47.430Z,19.50
2022-09-03T08:24:18.453Z,19.60
2022-09-03T08:26:51.332Z,19.70
2022-09-03T08:29:20.924Z,19.70
2022-09-03T08:31:48.857Z,19.70
2022-09-03T08:34:17.913Z,19.50
2022-09-03T08:36:47.238Z,19.50
2022-09-03T08:39:15.896Z,19.60
2022-09-03T08:41:49.250Z,19.60
2022-09-03T08:44:47.232Z,19.60
2022-09-03T08:47:33.012Z,19.70
2022-09-03T08:50:26.666Z,19.70
2022-09-03T08:53:04.626Z,19.70
2022-09-03T08:55:36.390Z,19.80
2022-09-03T08:58:10.867Z,20.00
2022-09-03T09:01:17.276Z,20.10
2022-09-03T09:03:48.023Z,19.90
2022-09-03T09:06:50.229Z,19.90
2022-09-03T09:09:36.727Z,20.00
2022-09-03T09:12:44.226Z,19.80
2022-09-03T09:15:52.102Z,19.80
2022-09-03T09:18:41.027Z,19.80
2022-09-03T09:21:32.475Z,20.20
2022-09-03T09:24:08.822Z,20.30
2022-09-03T09:26:43.372Z,20.30
2022-09-03T09:29:13.464Z,20.20
2022-09-03T09:31:44.744Z,20.30
2022-09-03T09:34:12.588Z,20.40
2022-09-03T09:36:49.843Z,20.50
2022-09-03T09:39:32.912Z,20.50
2022-09-03T09:42:11.129Z,20.60
2022-09-03T09:44:42.051Z,20.70
2022-09-03T09:47:34.761Z,20.80
2022-09-03T09:50:04.394Z,20.90
2022-09-03T09:52:32.522Z,20.90
2022-09-03T09:55:14.616Z,20.90
2022-09-03T09:57:42.394Z,20.90
2022-09-03T10:00:18.701Z,20.70
2022-09-03T10:02:54.758Z,20.70
2022-09-03T10:05:27.873Z,20.80
2022-09-03T10:08:04.468Z,21.00
2022-09-03T10:10:43.109Z,21.20
2022-09-03T10:13:25.871Z,21.40
2022-09-03T10:16:03.149Z,21.60
2022-09-03T10:19:12.381Z,21.60
2022-09-03T10:22:23.348Z,21.70
2022-09-03T10:25:01.194Z,21.80
2022-09-03T10:27:30.155Z,21.90
2022-09-03T10:30:00.746Z,22.10
2022-09-03T10:32:50.138Z,22.30
2022-09-03T10:35:31.184Z,22.40
2022-09-03T10:38:10.729Z,22.50
2022-09-03T10:40:53.333Z,22.60
2022-09-03T10:44:00.158Z,22.70
2022-09-03T10:46:38.622Z,22.70
2022-09-03T10:49:53.954Z,22.60
2022-09-03T10:52:38.258Z,22.70
2022-09-03T10:55:48.207Z,22.60
2022-09-03T10:59:04.995Z,22.70
2022-09-03T11:01:52.342Z,22.80
2022-09-03T11:04:54.520Z,22.80
2022-09-03T11:07:30.767Z,22.90
2022-09-03T11:10:21.985Z,22.90
2022-09-03T11:13:41.681Z,22.90
2022-09-03T11:16:27.769Z,23.00
2022-09-03T11:19:16.700Z,23.00
2022-09-03T11:21:45.905Z,23.00
2022-09-03T11:24:26.827Z,23.10
2022-09-03T11:27:15.772Z,23.20
2022-09-03T11:29:54.002Z,23.20
2022-09-03T11:32:41.078Z,23.20
2022-09-03T11:35:28.680Z,23.20
2022-09-03T11:38:16.671Z,23.40
2022-09-03T11:41:00.063Z,23.50
2022-09-03T11:43:30.514Z,23.60
2022-09-03T11:46:13.339Z,23.70
2022-09-03T11:48:48.457Z,23.70
2022-09-03T11:51:25.091Z,23.80
2022-09-03T11:54:00.883Z,23.80
2022-09-03T11:56:31.726Z,23.80
2022-09-03T11:59:17.367Z,23.90
2022-09-03T12:01:59.538Z,23.90
2022-09-03T12:05:09.121Z,23.90
2022-09-03T12:08:09.133Z,23.80
2022-09-03T12:11:14.083Z,23.60
2022-09-03T12:14:27.351Z,23.60
2022-09-03T12:17:22.607Z,23.50
2022-09-03T12:19:57.761Z,23.40
2022-09-03T12:22:31.322Z,23.30
2022-09-03T12:25:15.185Z,23.30
2022-09-03T12:27:46.697Z,23.30
2022-09-03T12:30:21.575Z,23.20
2022-09-03T12:32:51.461Z,23.10
2022-09-03T12:38:18.469Z,23.00
2022-09-03T12:43:38.719Z,22.80
2022-09-03T12:46:15.826Z,22.60
2022-09-03T12:52:33.685Z,21.80
2022-09-03T12:55:33.016Z,21.30
2022-09-03T12:58:25.524Z,21.00
2022-09-03T13:01:26.833Z,20.70
2022-09-03T13:04:24.799Z,20.60
2022-09-03T13:07:44.691Z,20.50
2022-09-03T13:10:30.405Z,20.30
2022-09-03T13:13:18.862Z,20.20
2022-09-03T13:16:36.162Z,20.20
2022-09-03T13:19:34.948Z,20.40
2022-09-03T13:22:35.055Z,20.40
2022-09-03T13:25:42.412Z,20.60
2022-09-03T13:28:50.555Z,20.60
2022-09-03T13:31:44.617Z,20.80
2022-09-03T13:34:20.910Z,20.80
2022-09-03T13:37:34.136Z,20.70
2022-09-03T13:40:29.481Z,20.70
2022-09-03T13:43:13.550Z,20.80
2022-09-03T13:46:18.352Z,20.90
2022-09-03T13:49:06.899Z,21.00
2022-09-03T13:51:51.749Z,21.10
2022-09-03T13:54:49.010Z,21.40
2022-09-03T13:58:02.081Z,21.50
2022-09-03T14:00:55.402Z,21.70
2022-09-03T14:03:54.984Z,21.80
2022-09-03T14:06:59.763Z,21.60
2022-09-03T14:09:57.438Z,21.50
2022-09-03T14:13:10.844Z,21.50
2022-09-03T14:16:14.028Z,21.40
2022-09-03T14:19:12.469Z,21.30
2022-09-03T14:21:55.025Z,21.20
2022-09-03T14:24:43.408Z,21.20
2022-09-03T14:27:11.280Z,21.10
2022-09-03T14:29:50.238Z,21.00
2022-09-03T14:32:29.875Z,20.90
2022-09-03T14:35:17.600Z,20.80
2022-09-03T14:38:13.603Z,20.80
2022-09-03T14:41:00.999Z,20.80
2022-09-03T14:43:56.710Z,20.60
2022-09-03T14:47:09.211Z,20.50
2022-09-03T14:49:47.471Z,20.50
2022-09-03T14:52:30.843Z,20.30
2022-09-03T14:55:36.620Z,20.30
2022-09-03T14:58:19.647Z,20.20
2022-09-03T15:01:15.333Z,20.30
2022-09-03T15:04:34.031Z,20.60
2022-09-03T15:07:12.573Z,21.10
2022-09-03T15:10:05.160Z,21.60
2022-09-03T15:13:10.428Z,21.80
2022-09-03T15:15:41.564Z,21.90
2022-09-03T15:18:47.366Z,22.00
2022-09-03T15:21:32.495Z,22.20
2022-09-03T15:24:17.823Z,22.40
2022-09-03T15:27:10.023Z,22.70
2022-09-03T15:30:08.546Z,22.60
2022-09-03T15:33:13.421Z,22.50
2022-09-03T15:36:01.600Z,22.50
2022-09-03T15:38:41.507Z,22.30
2022-09-03T15:41:41.086Z,22.30
2022-09-03T15:44:41.938Z,22.30
2022-09-03T15:47:53.999Z,22.20
2022-09-03T15:50:38.449Z,22.00
2022-09-03T15:53:58.152Z,21.90
2022-09-03T15:56:47.681Z,21.90
2022-09-03T15:59:42.758Z,21.70
2022-09-03T16:02:28.271Z,21.60
2022-09-03T16:05:10.000Z,21.50
2022-09-03T16:07:38.457Z,21.50
2022-09-03T16:10:30.791Z,21.50
2022-09-03T16:13:32.014Z,21.40
2022-09-03T16:16:23.476Z,21.40
2022-09-03T16:19:12.001Z,21.40
2022-09-03T16:22:05.920Z,21.40
2022-09-03T16:24:54.391Z,21.40
2022-09-03T16:27:47.423Z,21.40
2022-09-03T16:30:40.688Z,21.40
2022-09-03T16:33:33.438Z,21.40
2022-09-03T16:36:24.634Z,21.50
2022-09-03T16:39:26.292Z,21.50
2022-09-03T16:42:37.003Z,21.60
2022-09-03T16:45:17.282Z,21.60
2022-09-03T16:48:02.690Z,21.60
2022-09-03T16:51:05.966Z,21.60
2022-09-03T16:54:19.941Z,21.60
2022-09-03T16:57:24.560Z,21.60
2022-09-03T17:00:09.043Z,21.50
2022-09-03T17:03:03.823Z,21.40
2022-09-03T17:05:43.711Z,21.40
2022-09-03T17:08:40.694Z,21.40
2022-09-03T17:11:51.436Z,21.40
2022-09-03T17:15:04.397Z,21.30
2022-09-03T17:17:43.794Z,21.30
2022-09-03T17:20:36.111Z,21.20
2022-09-03T17:23:06.795Z,21.20
2022-09-03T17:25:49.006Z,21.10
2022-09-03T17:28:49.959Z,21.00
2022-09-03T17:31:55.217Z,21.10
2022-09-03T17:34:55.499Z,21.00
2022-09-03T17:38:02.171Z,21.00
2022-09-03T17:40:48.951Z,20.90
2022-09-03T17:43:45.680Z,20.80
2022-09-03T17:46:51.977Z,20.80
2022-09-03T17:49:49.126Z,20.80
2022-09-03T17:52:33.232Z,20.70
2022-09-03T17:55:28.989Z,20.70
2022-09-03T17:58:22.730Z,20.60
2022-09-03T18:01:05.416Z,20.50
2022-09-03T18:03:54.065Z,20.40
2022-09-03T18:07:06.086Z,20.20
2022-09-03T18:09:46.236Z,20.10
2022-09-03T18:12:30.368Z,20.10
2022-09-03T18:15:25.556Z,20.10
2022-09-03T18:18:26.722Z,20.00
2022-09-03T18:21:24.323Z,20.00
2022-09-03T18:24:40.256Z,19.90
2022-09-03T18:27:48.704Z,19.90
2022-09-03T18:30:35.870Z,19.80
2022-09-03T18:33:22.626Z,19.80
2022-09-03T18:36:09.172Z,19.80
2022-09-03T18:38:58.131Z,19.90
2022-09-03T18:42:04.532Z,19.80
2022-09-03T18:45:24.184Z,19.80
2022-09-03T18:48:22.659Z,19.70
2022-09-03T18:51:55.037Z,19.70
2022-09-03T18:55:09.706Z,19.70
2022-09-03T18:58:36.146Z,19.70
2022-09-03T19:01:53.473Z,19.80
2022-09-03T19:05:07.624Z,19.80
2022-09-03T19:08:25.359Z,19.80
2022-09-03T19:11:53.624Z,19.70
2022-09-03T19:15:13.744Z,19.70
2022-09-03T19:18:26.000Z,19.70
2022-09-03T19:22:00.199Z,19.60
2022-09-03T19:24:49.849Z,19.60
2022-09-03T19:27:57.252Z,19.50
2022-09-03T19:31:10.907Z,19.60
2022-09-03T19:34:34.434Z,19.50
2022-09-03T19:37:44.471Z,19.50
2022-09-03T19:40:47.532Z,19.50
2022-09-03T19:43:51.962Z,19.50
2022-09-03T19:46:53.780Z,19.40
2022-09-03T19:50:13.226Z,19.40
2022-09-03T19:53:25.302Z,19.40
2022-09-03T19:56:19.128Z,19.30
2022-09-03T19:59:16.956Z,19.30
2022-09-03T20:02:05.461Z,19.30
2022-09-03T20:05:03.028Z,19.30
2022-09-03T20:07:50.649Z,19.30
2022-09-03T20:10:25.050Z,19.30
2022-09-03T20:13:14.711Z,19.30
2022-09-03T20:15:51.314Z,19.30
2022-09-03T20:18:52.743Z,19.30
2022-09-03T20:21:26.779Z,19.20
2022-09-03T20:24:01.215Z,19.20
2022-09-03T20:26:31.909Z,19.20
2022-09-03T20:29:05.744Z,19.20
2022-09-03T20:32:22.531Z,19.20
2022-09-03T20:35:19.463Z,19.10
2022-09-03T20:38:01.073Z,19.10
2022-09-03T20:40:59.617Z,19.10
2022-09-03T20:44:22.783Z,19.10
2022-09-03T20:47:25.302Z,19.10
2022-09-03T20:50:48.753Z,19.10
2022-09-03T20:53:33.192Z,19.10
2022-09-03T20:56:12.884Z,19.00
2022-09-03T20:59:02.555Z,19.00
2022-09-03T21:01:52.425Z,19.00
2022-09-03T21:05:01.247Z,18.90
2022-09-03T21:08:03.408Z,18.90
2022-09-03T21:11:08.813Z,18.90
2022-09-03T21:13:50.143Z,18.80
2022-09-03T21:17:25.482Z,18.80
2022-09-03T21:20:30.044Z,18.80
2022-09-03T21:23:28.474Z,18.80
2022-09-03T21:26:15.023Z,18.80
2022-09-03T21:28:53.543Z,18.80
2022-09-03T21:31:59.166Z,18.90
2022-09-03T21:34:41.006Z,18.90
2022-09-03T21:37:14.010Z,18.90
2022-09-03T21:39:51.982Z,18.90
2022-09-03T21:42:48.974Z,18.90
2022-09-03T21:45:40.089Z,19.00
2022-09-03T21:48:22.792Z,19.00
2022-09-03T21:51:00.675Z,19.00
2022-09-03T21:53:39.690Z,19.00
2022-09-03T21:56:30.327Z,19.00
2022-09-03T21:59:19.808Z,19.00
2022-09-03T22:02:37.577Z,19.00
2022-09-03T22:05:06.047Z,19.00
2022-09-03T22:07:53.398Z,19.00
2022-09-03T22:10:40.062Z,19.00
2022-09-03T22:13:38.428Z,19.10
2022-09-03T22:16:33.742Z,19.00
2022-09-03T22:19:01.562Z,19.00
2022-09-03T22:21:44.435Z,18.90
2022-09-03T22:24:24.597Z,19.00
2022-09-03T22:27:22.658Z,18.90
2022-09-03T22:30:11.378Z,19.00
2022-09-03T22:32:59.932Z,19.00
2022-09-03T22:35:59.299Z,19.00
2022-09-03T22:39:22.484Z,18.90
2022-09-03T22:42:10.153Z,18.90
2022-09-03T22:45:23.808Z,18.90
2022-09-03T22:48:10.272Z,18.90
2022-09-03T22:51:06.553Z,18.90
2022-09-03T22:53:46.083Z,18.90
2022-09-03T22:56:23.981Z,19.00
2022-09-03T22:59:07.426Z,19.00
2022-09-03T23:02:06.046Z,19.00
2022-09-03T23:05:21.042Z,18.90
2022-09-03T23:08:14.437Z,18.90
2022-09-03T23:10:54.131Z,18.90
2022-09-03T23:13:42.064Z,18.90
2022-09-03T23:16:37.774Z,19.00
2022-09-03T23:19:46.542Z,18.90
2022-09-03T23:22:41.776Z,18.80
2022-09-03T23:25:33.518Z,18.80
2022-09-03T23:28:09.531Z,18.80
2022-09-03T23:30:37.503Z,18.70
2022-09-03T23:33:05.334Z,18.70
2022-09-03T23:35:56.560Z,18.70
2022-09-03T23:38:51.242Z,18.60
2022-09-03T23:41:43.172Z,18.60
2022-09-03T23:45:15.369Z,18.50
2022-09-03T23:47:51.691Z,18.40
2022-09-03T23:50:52.875Z,18.40
2022-09-03T23:53:37.431Z,18.30
2022-09-03T23:56:34.726Z,18.20
2022-09-03T23:59:28.853Z,18.10
